sensor_id;sensor_type;location;lat;lon;timestamp;temperature;humidity
14397;DHT22;50653;47.810;13.022;2024-02-21T00:01:50;4.50;99.90
14397;DHT22;50653;47.810;13.022;2024-02-21T00:04:16;4.60;99.90
14397;DHT22;50653;47.810;13.022;2024-02-21T00:06:42;4.60;99.90
14397;DHT22;50653;47.810;13.022;2024-02-21T00:09:07;4.60;99.90
14397;DHT22;50653;47.810;13.022;2024-02-21T00:11:35;4.70;99.90
14397;DHT22;50653;47.810;13.022;2024-02-21T00:14:01;4.60;99.90
14397;DHT22;50653;47.810;13.022;2024-02-21T00:16:26;4.60;99.90
14397;DHT22;50653;47.810;13.022;2024-02-21T00:18:52;4.60;99.90
14397;DHT22;50653;47.810;13.022;2024-02-21T00:21:17;4.80;99.90
14397;DHT22;50653;47.810;13.022;2024-02-21T00:23:44;4.70;99.90
14397;DHT22;50653;47.810;13.022;2024-02-21T00:26:14;4.60;99.90
14397;DHT22;50653;47.810;13.022;2024-02-21T00:28:39;4.60;99.90
14397;DHT22;50653;47.810;13.022;2024-02-21T00:31:05;4.60;99.90
14397;DHT22;50653;47.810;13.022;2024-02-21T00:33:31;4.60;99.90
14397;DHT22;50653;47.810;13.022;2024-02-21T00:35:57;4.60;99.90
14397;DHT22;50653;47.810;13.022;2024-02-21T00:38:22;4.70;99.90
14397;DHT22;50653;47.810;13.022;2024-02-21T00:40:48;4.70;99.90
14397;DHT22;50653;47.810;13.022;2024-02-21T00:43:14;4.60;99.90
14397;DHT22;50653;47.810;13.022;2024-02-21T00:45:39;4.70;99.90
14397;DHT22;50653;47.810;13.022;2024-02-21T00:48:05;4.60;99.90
14397;DHT22;50653;47.810;13.022;2024-02-21T00:50:31;4.60;99.90
14397;DHT22;50653;47.810;13.022;2024-02-21T00:52:57;4.60;99.90
14397;DHT22;50653;47.810;13.022;2024-02-21T00:55:23;4.60;99.90
14397;DHT22;50653;47.810;13.022;2024-02-21T00:57:48;4.80;99.90
14397;DHT22;50653;47.810;13.022;2024-02-21T01:00:14;4.80;99.90
14397;DHT22;50653;47.810;13.022;2024-02-21T01:02:40;4.70;99.90
14397;DHT22;50653;47.810;13.022;2024-02-21T01:05:06;4.70;99.90
14397;DHT22;50653;47.810;13.022;2024-02-21T01:07:32;4.70;99.90
14397;DHT22;50653;47.810;13.022;2024-02-21T01:09:57;4.70;99.90
14397;DHT22;50653;47.810;13.022;2024-02-21T01:12:23;4.80;99.90
14397;DHT22;50653;47.810;13.022;2024-02-21T01:14:49;4.70;99.90
14397;DHT22;50653;47.810;13.022;2024-02-21T01:17:15;4.70;99.90
14397;DHT22;50653;47.810;13.022;2024-02-21T01:19:41;4.80;99.90
14397;DHT22;50653;47.810;13.022;2024-02-21T01:22:06;4.80;99.90
14397;DHT22;50653;47.810;13.022;2024-02-21T01:24:32;4.70;99.90
14397;DHT22;50653;47.810;13.022;2024-02-21T01:26:58;4.90;99.90
14397;DHT22;50653;47.810;13.022;2024-02-21T01:29:24;4.90;99.90
14397;DHT22;50653;47.810;13.022;2024-02-21T01:31:49;4.90;99.90
14397;DHT22;50653;47.810;13.022;2024-02-21T01:34:15;5.00;99.90
14397;DHT22;50653;47.810;13.022;2024-02-21T01:36:41;5.10;99.90
14397;DHT22;50653;47.810;13.022;2024-02-21T01:39:07;5.10;99.90
14397;DHT22;50653;47.810;13.022;2024-02-21T01:41:33;5.00;99.90
14397;DHT22;50653;47.810;13.022;2024-02-21T01:43:59;5.00;99.90
14397;DHT22;50653;47.810;13.022;2024-02-21T01:46:24;5.00;99.90
14397;DHT22;50653;47.810;13.022;2024-02-21T01:48:56;5.00;99.90
14397;DHT22;50653;47.810;13.022;2024-02-21T01:51:23;4.90;99.90
14397;DHT22;50653;47.810;13.022;2024-02-21T01:53:50;4.80;99.90
14397;DHT22;50653;47.810;13.022;2024-02-21T01:56:17;4.80;99.90
14397;DHT22;50653;47.810;13.022;2024-02-21T01:58:44;4.80;99.90
14397;DHT22;50653;47.810;13.022;2024-02-21T02:01:10;4.90;99.90
14397;DHT22;50653;47.810;13.022;2024-02-21T02:03:36;4.90;99.90
14397;DHT22;50653;47.810;13.022;2024-02-21T02:06:04;4.80;99.90
14397;DHT22;50653;47.810;13.022;2024-02-21T02:08:31;4.90;99.90
14397;DHT22;50653;47.810;13.022;2024-02-21T02:10:57;4.90;99.90
14397;DHT22;50653;47.810;13.022;2024-02-21T02:13:23;4.80;99.90
14397;DHT22;50653;47.810;13.022;2024-02-21T02:15:50;4.80;99.90
14397;DHT22;50653;47.810;13.022;2024-02-21T02:18:17;4.80;99.90
14397;DHT22;50653;47.810;13.022;2024-02-21T02:20:44;4.80;99.90
14397;DHT22;50653;47.810;13.022;2024-02-21T02:25:40;4.80;99.90
14397;DHT22;50653;47.810;13.022;2024-02-21T02:28:06;4.90;99.90
14397;DHT22;50653;47.810;13.022;2024-02-21T02:30:33;4.90;99.90
14397;DHT22;50653;47.810;13.022;2024-02-21T02:33:00;4.90;99.90
14397;DHT22;50653;47.810;13.022;2024-02-21T02:35:25;4.90;99.90
14397;DHT22;50653;47.810;13.022;2024-02-21T02:37:51;4.90;99.90
14397;DHT22;50653;47.810;13.022;2024-02-21T02:40:18;4.90;99.90
14397;DHT22;50653;47.810;13.022;2024-02-21T02:42:44;5.00;99.90
14397;DHT22;50653;47.810;13.022;2024-02-21T02:45:10;4.90;99.90
14397;DHT22;50653;47.810;13.022;2024-02-21T02:47:35;4.90;99.90
14397;DHT22;50653;47.810;13.022;2024-02-21T02:50:01;5.00;99.90
14397;DHT22;50653;47.810;13.022;2024-02-21T02:52:27;4.90;99.90
14397;DHT22;50653;47.810;13.022;2024-02-21T02:54:53;4.90;99.90
14397;DHT22;50653;47.810;13.022;2024-02-21T02:57:21;4.90;99.90
14397;DHT22;50653;47.810;13.022;2024-02-21T02:59:48;4.80;99.90
14397;DHT22;50653;47.810;13.022;2024-02-21T03:02:14;4.90;99.90
14397;DHT22;50653;47.810;13.022;2024-02-21T03:04:40;4.90;99.90
14397;DHT22;50653;47.810;13.022;2024-02-21T03:07:06;4.90;99.90
14397;DHT22;50653;47.810;13.022;2024-02-21T03:09:31;4.90;99.90
14397;DHT22;50653;47.810;13.022;2024-02-21T03:11:57;4.90;99.90
14397;DHT22;50653;47.810;13.022;2024-02-21T03:14:31;4.80;99.90
14397;DHT22;50653;47.810;13.022;2024-02-21T03:16:58;4.90;99.90
14397;DHT22;50653;47.810;13.022;2024-02-21T03:19:25;4.80;99.90
14397;DHT22;50653;47.810;13.022;2024-02-21T03:21:51;4.80;99.90
14397;DHT22;50653;47.810;13.022;2024-02-21T03:24:18;4.80;99.90
14397;DHT22;50653;47.810;13.022;2024-02-21T03:26:44;4.90;99.90
14397;DHT22;50653;47.810;13.022;2024-02-21T03:29:11;4.90;99.90
14397;DHT22;50653;47.810;13.022;2024-02-21T03:31:37;4.90;99.90
14397;DHT22;50653;47.810;13.022;2024-02-21T03:34:03;4.90;99.90
14397;DHT22;50653;47.810;13.022;2024-02-21T03:36:29;4.80;99.90
14397;DHT22;50653;47.810;13.022;2024-02-21T03:38:55;4.80;99.90
14397;DHT22;50653;47.810;13.022;2024-02-21T03:41:21;4.80;99.90
14397;DHT22;50653;47.810;13.022;2024-02-21T03:43:47;4.80;99.90
14397;DHT22;50653;47.810;13.022;2024-02-21T03:46:12;4.80;99.90
14397;DHT22;50653;47.810;13.022;2024-02-21T03:48:38;4.80;99.90
14397;DHT22;50653;47.810;13.022;2024-02-21T03:51:04;4.80;99.90
14397;DHT22;50653;47.810;13.022;2024-02-21T03:53:30;4.90;99.90
14397;DHT22;50653;47.810;13.022;2024-02-21T03:55:56;4.90;99.90
14397;DHT22;50653;47.810;13.022;2024-02-21T03:58:25;4.90;99.90
14397;DHT22;50653;47.810;13.022;2024-02-21T04:00:50;4.90;99.90
14397;DHT22;50653;47.810;13.022;2024-02-21T04:03:17;4.90;99.90
14397;DHT22;50653;47.810;13.022;2024-02-21T04:05:43;4.90;99.90
14397;DHT22;50653;47.810;13.022;2024-02-21T04:08:08;4.90;99.90
14397;DHT22;50653;47.810;13.022;2024-02-21T04:10:34;4.90;99.90
14397;DHT22;50653;47.810;13.022;2024-02-21T04:13:00;4.90;99.90
14397;DHT22;50653;47.810;13.022;2024-02-21T04:15:25;5.00;99.90
14397;DHT22;50653;47.810;13.022;2024-02-21T04:17:51;5.00;99.90
14397;DHT22;50653;47.810;13.022;2024-02-21T04:20:18;5.00;99.90
14397;DHT22;50653;47.810;13.022;2024-02-21T04:22:44;5.00;99.90
14397;DHT22;50653;47.810;13.022;2024-02-21T04:25:10;5.10;99.90
14397;DHT22;50653;47.810;13.022;2024-02-21T04:27:37;5.00;99.90
14397;DHT22;50653;47.810;13.022;2024-02-21T04:30:03;5.10;99.90
14397;DHT22;50653;47.810;13.022;2024-02-21T04:32:29;5.10;99.90
14397;DHT22;50653;47.810;13.022;2024-02-21T04:34:55;5.20;99.90
14397;DHT22;50653;47.810;13.022;2024-02-21T04:37:21;5.20;99.90
14397;DHT22;50653;47.810;13.022;2024-02-21T04:39:48;5.20;99.90
14397;DHT22;50653;47.810;13.022;2024-02-21T04:42:14;5.20;99.90
14397;DHT22;50653;47.810;13.022;2024-02-21T04:44:39;5.20;99.90
14397;DHT22;50653;47.810;13.022;2024-02-21T04:47:05;5.20;99.90
14397;DHT22;50653;47.810;13.022;2024-02-21T04:49:31;5.10;99.90
14397;DHT22;50653;47.810;13.022;2024-02-21T04:51:56;5.20;99.90
14397;DHT22;50653;47.810;13.022;2024-02-21T04:54:22;5.20;99.90
14397;DHT22;50653;47.810;13.022;2024-02-21T04:56:48;5.20;99.90
14397;DHT22;50653;47.810;13.022;2024-02-21T04:59:13;5.20;99.90
14397;DHT22;50653;47.810;13.022;2024-02-21T05:01:39;5.20;99.90
14397;DHT22;50653;47.810;13.022;2024-02-21T05:04:05;5.20;99.90
14397;DHT22;50653;47.810;13.022;2024-02-21T05:06:30;5.20;99.90
14397;DHT22;50653;47.810;13.022;2024-02-21T05:08:56;5.20;99.90
14397;DHT22;50653;47.810;13.022;2024-02-21T05:11:23;5.20;99.90
14397;DHT22;50653;47.810;13.022;2024-02-21T05:13:50;5.20;99.90
14397;DHT22;50653;47.810;13.022;2024-02-21T05:16:16;5.20;99.90
14397;DHT22;50653;47.810;13.022;2024-02-21T05:18:41;5.10;99.90
14397;DHT22;50653;47.810;13.022;2024-02-21T05:21:08;5.10;99.90
14397;DHT22;50653;47.810;13.022;2024-02-21T05:23:34;5.20;99.90
14397;DHT22;50653;47.810;13.022;2024-02-21T05:26:00;5.10;99.90
14397;DHT22;50653;47.810;13.022;2024-02-21T05:28:26;5.00;99.90
14397;DHT22;50653;47.810;13.022;2024-02-21T05:30:51;5.10;99.90
14397;DHT22;50653;47.810;13.022;2024-02-21T05:33:17;5.10;99.90
14397;DHT22;50653;47.810;13.022;2024-02-21T05:35:48;5.10;99.90
14397;DHT22;50653;47.810;13.022;2024-02-21T05:38:14;5.10;99.90
14397;DHT22;50653;47.810;13.022;2024-02-21T05:40:40;5.00;99.90
14397;DHT22;50653;47.810;13.022;2024-02-21T05:43:08;5.00;99.90
14397;DHT22;50653;47.810;13.022;2024-02-21T05:45:34;5.00;99.90
14397;DHT22;50653;47.810;13.022;2024-02-21T05:48:00;5.00;99.90
14397;DHT22;50653;47.810;13.022;2024-02-21T05:50:26;5.00;99.90
14397;DHT22;50653;47.810;13.022;2024-02-21T05:52:54;5.00;99.90
14397;DHT22;50653;47.810;13.022;2024-02-21T05:55:21;5.10;99.90
14397;DHT22;50653;47.810;13.022;2024-02-21T05:57:47;5.00;99.90
14397;DHT22;50653;47.810;13.022;2024-02-21T06:00:13;5.10;99.90
14397;DHT22;50653;47.810;13.022;2024-02-21T06:02:39;5.10;99.90
14397;DHT22;50653;47.810;13.022;2024-02-21T06:05:06;5.10;99.90
14397;DHT22;50653;47.810;13.022;2024-02-21T06:07:33;5.10;99.90
14397;DHT22;50653;47.810;13.022;2024-02-21T06:10:01;5.10;99.90
14397;DHT22;50653;47.810;13.022;2024-02-21T06:12:26;5.20;99.90
14397;DHT22;50653;47.810;13.022;2024-02-21T06:14:52;5.10;99.90
14397;DHT22;50653;47.810;13.022;2024-02-21T06:17:18;5.10;99.90
14397;DHT22;50653;47.810;13.022;2024-02-21T06:19:43;5.10;99.90
14397;DHT22;50653;47.810;13.022;2024-02-21T06:22:10;5.10;99.90
14397;DHT22;50653;47.810;13.022;2024-02-21T06:24:36;5.20;99.90
14397;DHT22;50653;47.810;13.022;2024-02-21T06:27:05;5.20;99.90
14397;DHT22;50653;47.810;13.022;2024-02-21T06:29:32;5.20;99.90
14397;DHT22;50653;47.810;13.022;2024-02-21T06:31:58;5.20;99.90
14397;DHT22;50653;47.810;13.022;2024-02-21T06:34:24;5.20;99.90
14397;DHT22;50653;47.810;13.022;2024-02-21T06:36:50;5.20;99.90
14397;DHT22;50653;47.810;13.022;2024-02-21T06:39:16;5.30;99.90
14397;DHT22;50653;47.810;13.022;2024-02-21T06:41:42;5.30;99.90
14397;DHT22;50653;47.810;13.022;2024-02-21T06:44:08;5.40;99.90
14397;DHT22;50653;47.810;13.022;2024-02-21T06:46:34;5.30;99.90
14397;DHT22;50653;47.810;13.022;2024-02-21T06:49:00;5.40;99.90
14397;DHT22;50653;47.810;13.022;2024-02-21T06:51:26;5.40;99.90
14397;DHT22;50653;47.810;13.022;2024-02-21T06:53:53;5.40;99.90
14397;DHT22;50653;47.810;13.022;2024-02-21T06:56:19;5.50;99.90
14397;DHT22;50653;47.810;13.022;2024-02-21T06:58:45;5.50;99.90
14397;DHT22;50653;47.810;13.022;2024-02-21T07:01:11;5.60;99.90
14397;DHT22;50653;47.810;13.022;2024-02-21T07:03:37;5.70;99.90
14397;DHT22;50653;47.810;13.022;2024-02-21T07:06:03;5.70;99.90
14397;DHT22;50653;47.810;13.022;2024-02-21T07:08:28;5.70;99.90
14397;DHT22;50653;47.810;13.022;2024-02-21T07:10:54;5.70;99.90
14397;DHT22;50653;47.810;13.022;2024-02-21T07:13:20;5.60;99.90
14397;DHT22;50653;47.810;13.022;2024-02-21T07:15:47;5.60;99.90
14397;DHT22;50653;47.810;13.022;2024-02-21T07:18:13;5.50;99.90
14397;DHT22;50653;47.810;13.022;2024-02-21T07:20:39;5.50;99.90
14397;DHT22;50653;47.810;13.022;2024-02-21T07:23:07;5.50;99.90
14397;DHT22;50653;47.810;13.022;2024-02-21T07:25:33;5.40;99.90
14397;DHT22;50653;47.810;13.022;2024-02-21T07:27:59;5.30;99.90
14397;DHT22;50653;47.810;13.022;2024-02-21T07:30:24;5.30;99.90
14397;DHT22;50653;47.810;13.022;2024-02-21T07:32:50;5.30;99.90
14397;DHT22;50653;47.810;13.022;2024-02-21T07:35:20;5.30;99.90
14397;DHT22;50653;47.810;13.022;2024-02-21T07:37:45;5.20;99.90
14397;DHT22;50653;47.810;13.022;2024-02-21T07:40:15;5.20;99.90
14397;DHT22;50653;47.810;13.022;2024-02-21T07:42:41;5.30;99.90
14397;DHT22;50653;47.810;13.022;2024-02-21T07:45:08;5.20;99.90
14397;DHT22;50653;47.810;13.022;2024-02-21T07:47:34;5.30;99.90
14397;DHT22;50653;47.810;13.022;2024-02-21T07:49:59;5.40;99.90
14397;DHT22;50653;47.810;13.022;2024-02-21T07:52:25;5.50;99.90
14397;DHT22;50653;47.810;13.022;2024-02-21T07:54:51;5.50;99.90
14397;DHT22;50653;47.810;13.022;2024-02-21T07:57:17;5.60;99.90
14397;DHT22;50653;47.810;13.022;2024-02-21T07:59:42;5.70;99.90
14397;DHT22;50653;47.810;13.022;2024-02-21T08:02:08;5.80;99.90
14397;DHT22;50653;47.810;13.022;2024-02-21T08:04:34;5.80;99.90
14397;DHT22;50653;47.810;13.022;2024-02-21T08:06:59;5.80;99.90
14397;DHT22;50653;47.810;13.022;2024-02-21T08:09:28;5.90;99.90
14397;DHT22;50653;47.810;13.022;2024-02-21T08:11:57;6.00;99.90
14397;DHT22;50653;47.810;13.022;2024-02-21T08:14:23;6.00;99.90
14397;DHT22;50653;47.810;13.022;2024-02-21T08:16:50;6.00;99.90
14397;DHT22;50653;47.810;13.022;2024-02-21T08:19:16;6.10;99.90
14397;DHT22;50653;47.810;13.022;2024-02-21T08:21:42;6.20;99.90
14397;DHT22;50653;47.810;13.022;2024-02-21T08:24:08;6.20;99.90
14397;DHT22;50653;47.810;13.022;2024-02-21T08:26:34;6.30;99.90
14397;DHT22;50653;47.810;13.022;2024-02-21T08:29:01;6.30;99.90
14397;DHT22;50653;47.810;13.022;2024-02-21T08:31:28;6.30;99.90
14397;DHT22;50653;47.810;13.022;2024-02-21T08:34:03;6.40;99.90
14397;DHT22;50653;47.810;13.022;2024-02-21T08:36:33;6.40;99.90
14397;DHT22;50653;47.810;13.022;2024-02-21T08:39:00;6.60;99.90
14397;DHT22;50653;47.810;13.022;2024-02-21T08:41:26;6.60;99.90
14397;DHT22;50653;47.810;13.022;2024-02-21T08:43:52;6.70;99.90
14397;DHT22;50653;47.810;13.022;2024-02-21T08:46:23;6.80;99.90
14397;DHT22;50653;47.810;13.022;2024-02-21T08:48:53;6.90;99.90
14397;DHT22;50653;47.810;13.022;2024-02-21T08:51:19;7.00;99.90
14397;DHT22;50653;47.810;13.022;2024-02-21T08:53:48;7.10;99.90
14397;DHT22;50653;47.810;13.022;2024-02-21T08:56:15;7.10;99.90
14397;DHT22;50653;47.810;13.022;2024-02-21T08:58:41;7.20;99.90
14397;DHT22;50653;47.810;13.022;2024-02-21T09:01:07;7.30;99.90
14397;DHT22;50653;47.810;13.022;2024-02-21T09:03:37;7.30;99.90
14397;DHT22;50653;47.810;13.022;2024-02-21T09:06:06;7.40;99.90
14397;DHT22;50653;47.810;13.022;2024-02-21T09:08:33;7.50;99.90
14397;DHT22;50653;47.810;13.022;2024-02-21T09:11:00;7.50;99.90
14397;DHT22;50653;47.810;13.022;2024-02-21T09:13:26;7.60;99.90
14397;DHT22;50653;47.810;13.022;2024-02-21T09:15:52;7.60;99.90
14397;DHT22;50653;47.810;13.022;2024-02-21T09:18:18;7.60;99.90
14397;DHT22;50653;47.810;13.022;2024-02-21T09:20:44;7.70;99.90
14397;DHT22;50653;47.810;13.022;2024-02-21T09:23:10;7.60;99.90
14397;DHT22;50653;47.810;13.022;2024-02-21T09:25:36;7.70;99.90
14397;DHT22;50653;47.810;13.022;2024-02-21T09:28:02;7.70;99.90
14397;DHT22;50653;47.810;13.022;2024-02-21T09:30:28;7.80;99.90
14397;DHT22;50653;47.810;13.022;2024-02-21T09:32:54;7.90;99.90
14397;DHT22;50653;47.810;13.022;2024-02-21T09:35:20;8.00;99.90
14397;DHT22;50653;47.810;13.022;2024-02-21T09:37:48;8.10;99.90
14397;DHT22;50653;47.810;13.022;2024-02-21T09:40:15;8.20;99.90
14397;DHT22;50653;47.810;13.022;2024-02-21T09:42:47;8.30;99.90
14397;DHT22;50653;47.810;13.022;2024-02-21T09:45:23;8.30;99.90
14397;DHT22;50653;47.810;13.022;2024-02-21T09:50:24;8.50;99.90
14397;DHT22;50653;47.810;13.022;2024-02-21T09:52:52;8.70;99.90
14397;DHT22;50653;47.810;13.022;2024-02-21T09:55:20;8.80;99.90
14397;DHT22;50653;47.810;13.022;2024-02-21T09:57:46;8.90;99.90
14397;DHT22;50653;47.810;13.022;2024-02-21T10:00:15;8.90;99.90
14397;DHT22;50653;47.810;13.022;2024-02-21T10:02:48;9.00;99.90
14397;DHT22;50653;47.810;13.022;2024-02-21T10:05:14;9.00;99.90
14397;DHT22;50653;47.810;13.022;2024-02-21T10:07:40;9.00;99.90
14397;DHT22;50653;47.810;13.022;2024-02-21T10:10:07;9.00;99.90
14397;DHT22;50653;47.810;13.022;2024-02-21T10:12:33;9.10;99.90
14397;DHT22;50653;47.810;13.022;2024-02-21T10:15:05;9.10;99.90
14397;DHT22;50653;47.810;13.022;2024-02-21T10:17:34;9.10;99.90
14397;DHT22;50653;47.810;13.022;2024-02-21T10:20:10;9.20;99.90
14397;DHT22;50653;47.810;13.022;2024-02-21T10:22:37;9.30;99.90
14397;DHT22;50653;47.810;13.022;2024-02-21T10:25:11;9.40;99.90
14397;DHT22;50653;47.810;13.022;2024-02-21T10:27:38;9.40;99.90
14397;DHT22;50653;47.810;13.022;2024-02-21T10:30:06;9.40;99.90
14397;DHT22;50653;47.810;13.022;2024-02-21T10:32:33;9.50;99.90
14397;DHT22;50653;47.810;13.022;2024-02-21T10:35:03;9.50;99.90
14397;DHT22;50653;47.810;13.022;2024-02-21T10:37:30;9.60;99.90
14397;DHT22;50653;47.810;13.022;2024-02-21T10:39:57;9.60;99.90
14397;DHT22;50653;47.810;13.022;2024-02-21T10:42:23;9.70;99.90
14397;DHT22;50653;47.810;13.022;2024-02-21T10:44:51;9.70;99.90
14397;DHT22;50653;47.810;13.022;2024-02-21T10:47:19;9.80;99.90
14397;DHT22;50653;47.810;13.022;2024-02-21T10:49:53;9.80;99.90
14397;DHT22;50653;47.810;13.022;2024-02-21T10:52:35;9.90;99.90
14397;DHT22;50653;47.810;13.022;2024-02-21T10:55:04;9.90;99.90
14397;DHT22;50653;47.810;13.022;2024-02-21T10:57:35;10.00;99.90
14397;DHT22;50653;47.810;13.022;2024-02-21T11:00:04;10.00;99.90
14397;DHT22;50653;47.810;13.022;2024-02-21T11:02:34;10.10;99.90
14397;DHT22;50653;47.810;13.022;2024-02-21T11:05:01;10.10;99.90
14397;DHT22;50653;47.810;13.022;2024-02-21T11:07:29;10.20;99.90
14397;DHT22;50653;47.810;13.022;2024-02-21T11:09:57;10.20;99.90
14397;DHT22;50653;47.810;13.022;2024-02-21T11:12:25;10.20;99.90
14397;DHT22;50653;47.810;13.022;2024-02-21T11:14:53;10.20;99.90
14397;DHT22;50653;47.810;13.022;2024-02-21T11:17:30;10.30;99.90
14397;DHT22;50653;47.810;13.022;2024-02-21T11:19:55;10.40;99.90
14397;DHT22;50653;47.810;13.022;2024-02-21T11:22:21;10.40;99.90
14397;DHT22;50653;47.810;13.022;2024-02-21T11:24:50;10.40;99.90
14397;DHT22;50653;47.810;13.022;2024-02-21T11:27:19;10.40;99.90
14397;DHT22;50653;47.810;13.022;2024-02-21T11:29:54;10.30;99.90
14397;DHT22;50653;47.810;13.022;2024-02-21T11:32:21;10.30;99.90
14397;DHT22;50653;47.810;13.022;2024-02-21T11:35:03;10.20;99.90
14397;DHT22;50653;47.810;13.022;2024-02-21T11:37:31;10.10;99.90
14397;DHT22;50653;47.810;13.022;2024-02-21T11:40:03;10.10;99.90
14397;DHT22;50653;47.810;13.022;2024-02-21T11:42:30;10.10;99.90
14397;DHT22;50653;47.810;13.022;2024-02-21T11:44:56;10.10;99.90
14397;DHT22;50653;47.810;13.022;2024-02-21T11:47:23;10.20;99.90
14397;DHT22;50653;47.810;13.022;2024-02-21T11:49:49;10.30;99.90
14397;DHT22;50653;47.810;13.022;2024-02-21T11:52:22;10.50;99.90
14397;DHT22;50653;47.810;13.022;2024-02-21T11:54:51;10.60;99.90
14397;DHT22;50653;47.810;13.022;2024-02-21T11:57:17;10.40;99.90
14397;DHT22;50653;47.810;13.022;2024-02-21T11:59:44;10.50;99.90
14397;DHT22;50653;47.810;13.022;2024-02-21T12:02:11;10.50;99.90
14397;DHT22;50653;47.810;13.022;2024-02-21T12:04:37;10.60;99.90
14397;DHT22;50653;47.810;13.022;2024-02-21T12:07:03;10.70;99.90
14397;DHT22;50653;47.810;13.022;2024-02-21T12:09:30;10.90;99.90
14397;DHT22;50653;47.810;13.022;2024-02-21T12:12:03;10.90;99.90
14397;DHT22;50653;47.810;13.022;2024-02-21T12:14:31;10.90;99.90
14397;DHT22;50653;47.810;13.022;2024-02-21T12:16:57;10.90;99.90
14397;DHT22;50653;47.810;13.022;2024-02-21T12:19:23;11.00;99.90
14397;DHT22;50653;47.810;13.022;2024-02-21T12:21:49;11.00;99.90
14397;DHT22;50653;47.810;13.022;2024-02-21T12:24:26;11.10;99.90
14397;DHT22;50653;47.810;13.022;2024-02-21T12:26:52;11.10;99.90
14397;DHT22;50653;47.810;13.022;2024-02-21T12:29:22;11.20;99.90
14397;DHT22;50653;47.810;13.022;2024-02-21T12:31:51;11.20;99.90
14397;DHT22;50653;47.810;13.022;2024-02-21T12:34:17;11.30;99.90
14397;DHT22;50653;47.810;13.022;2024-02-21T12:36:44;11.30;99.90
14397;DHT22;50653;47.810;13.022;2024-02-21T12:39:10;11.40;99.70
14397;DHT22;50653;47.810;13.022;2024-02-21T12:41:37;11.40;99.90
14397;DHT22;50653;47.810;13.022;2024-02-21T12:44:10;11.50;98.60
14397;DHT22;50653;47.810;13.022;2024-02-21T12:46:39;11.50;99.40
14397;DHT22;50653;47.810;13.022;2024-02-21T12:49:05;11.60;98.20
14397;DHT22;50653;47.810;13.022;2024-02-21T12:51:33;11.70;98.10
14397;DHT22;50653;47.810;13.022;2024-02-21T12:53:58;11.70;98.20
14397;DHT22;50653;47.810;13.022;2024-02-21T12:56:25;11.70;99.30
14397;DHT22;50653;47.810;13.022;2024-02-21T12:58:53;11.80;99.90
14397;DHT22;50653;47.810;13.022;2024-02-21T13:01:18;11.90;99.90
14397;DHT22;50653;47.810;13.022;2024-02-21T13:03:44;11.90;98.80
14397;DHT22;50653;47.810;13.022;2024-02-21T13:06:12;11.90;98.30
14397;DHT22;50653;47.810;13.022;2024-02-21T13:08:38;12.00;96.80
14397;DHT22;50653;47.810;13.022;2024-02-21T13:11:04;12.10;97.00
14397;DHT22;50653;47.810;13.022;2024-02-21T13:13:30;12.10;95.10
14397;DHT22;50653;47.810;13.022;2024-02-21T13:15:57;12.10;95.40
14397;DHT22;50653;47.810;13.022;2024-02-21T13:18:23;12.00;95.10
14397;DHT22;50653;47.810;13.022;2024-02-21T13:20:49;12.10;96.10
14397;DHT22;50653;47.810;13.022;2024-02-21T13:23:14;12.20;95.00
14397;DHT22;50653;47.810;13.022;2024-02-21T13:25:40;12.20;95.90
14397;DHT22;50653;47.810;13.022;2024-02-21T13:28:06;12.20;96.00
14397;DHT22;50653;47.810;13.022;2024-02-21T13:30:32;12.20;95.20
14397;DHT22;50653;47.810;13.022;2024-02-21T13:32:58;12.30;95.60
14397;DHT22;50653;47.810;13.022;2024-02-21T13:35:24;12.30;96.00
14397;DHT22;50653;47.810;13.022;2024-02-21T13:37:49;12.30;95.40
14397;DHT22;50653;47.810;13.022;2024-02-21T13:40:16;12.40;97.20
14397;DHT22;50653;47.810;13.022;2024-02-21T13:42:42;12.40;96.80
14397;DHT22;50653;47.810;13.022;2024-02-21T13:45:09;12.40;97.00
14397;DHT22;50653;47.810;13.022;2024-02-21T13:47:35;12.40;97.00
14397;DHT22;50653;47.810;13.022;2024-02-21T13:50:07;12.60;96.20
14397;DHT22;50653;47.810;13.022;2024-02-21T13:52:40;12.60;96.70
14397;DHT22;50653;47.810;13.022;2024-02-21T13:55:06;12.60;97.40
14397;DHT22;50653;47.810;13.022;2024-02-21T13:57:35;12.60;96.60
14397;DHT22;50653;47.810;13.022;2024-02-21T14:00:02;12.60;97.10
14397;DHT22;50653;47.810;13.022;2024-02-21T14:02:37;12.70;97.30
14397;DHT22;50653;47.810;13.022;2024-02-21T14:05:05;12.70;98.00
14397;DHT22;50653;47.810;13.022;2024-02-21T14:07:31;12.70;98.50
14397;DHT22;50653;47.810;13.022;2024-02-21T14:09:59;12.80;98.40
14397;DHT22;50653;47.810;13.022;2024-02-21T14:12:24;12.90;98.10
14397;DHT22;50653;47.810;13.022;2024-02-21T14:14:50;13.00;97.40
14397;DHT22;50653;47.810;13.022;2024-02-21T14:17:17;13.00;98.00
14397;DHT22;50653;47.810;13.022;2024-02-21T14:19:43;13.00;98.30
14397;DHT22;50653;47.810;13.022;2024-02-21T14:22:09;13.00;99.00
14397;DHT22;50653;47.810;13.022;2024-02-21T14:24:36;13.00;99.10
14397;DHT22;50653;47.810;13.022;2024-02-21T14:27:02;13.00;99.60
14397;DHT22;50653;47.810;13.022;2024-02-21T14:29:29;13.10;99.80
14397;DHT22;50653;47.810;13.022;2024-02-21T14:31:54;13.10;99.90
14397;DHT22;50653;47.810;13.022;2024-02-21T14:34:20;13.10;99.90
14397;DHT22;50653;47.810;13.022;2024-02-21T14:36:46;13.10;99.90
14397;DHT22;50653;47.810;13.022;2024-02-21T14:39:11;13.10;99.70
14397;DHT22;50653;47.810;13.022;2024-02-21T14:41:37;13.00;99.40
14397;DHT22;50653;47.810;13.022;2024-02-21T14:44:05;13.00;99.00
14397;DHT22;50653;47.810;13.022;2024-02-21T14:46:30;13.10;99.10
14397;DHT22;50653;47.810;13.022;2024-02-21T14:48:56;13.10;98.90
14397;DHT22;50653;47.810;13.022;2024-02-21T14:51:22;13.10;98.10
14397;DHT22;50653;47.810;13.022;2024-02-21T14:53:48;13.10;97.90
14397;DHT22;50653;47.810;13.022;2024-02-21T14:56:14;13.10;97.60
14397;DHT22;50653;47.810;13.022;2024-02-21T14:58:41;13.20;97.60
14397;DHT22;50653;47.810;13.022;2024-02-21T15:01:08;13.20;97.70
14397;DHT22;50653;47.810;13.022;2024-02-21T15:03:34;13.20;97.20
14397;DHT22;50653;47.810;13.022;2024-02-21T15:06:00;13.20;97.30
14397;DHT22;50653;47.810;13.022;2024-02-21T15:08:28;13.20;97.10
14397;DHT22;50653;47.810;13.022;2024-02-21T15:10:54;13.30;97.20
14397;DHT22;50653;47.810;13.022;2024-02-21T15:13:20;13.20;97.40
14397;DHT22;50653;47.810;13.022;2024-02-21T15:15:47;13.20;97.80
14397;DHT22;50653;47.810;13.022;2024-02-21T15:18:17;13.20;97.20
14397;DHT22;50653;47.810;13.022;2024-02-21T15:20:43;13.10;97.80
14397;DHT22;50653;47.810;13.022;2024-02-21T15:23:08;13.00;96.90
14397;DHT22;50653;47.810;13.022;2024-02-21T15:25:34;13.00;96.90
14397;DHT22;50653;47.810;13.022;2024-02-21T15:28:00;12.90;97.00
14397;DHT22;50653;47.810;13.022;2024-02-21T15:30:28;12.90;97.10